sensor_id;sensor_type;location;lat;lon;timestamp;P1;durP1;ratioP1;P2;durP2;ratioP2
73938;SDS011;62291;47.554;8.504;2024-01-30T00:01:44;323.58;;;36.10;;
73938;SDS011;62291;47.554;8.504;2024-01-30T00:04:10;499.60;;;45.42;;
73938;SDS011;62291;47.554;8.504;2024-01-30T00:06:35;480.73;;;47.80;;
73938;SDS011;62291;47.554;8.504;2024-01-30T00:09:01;646.00;;;53.00;;
73938;SDS011;62291;47.554;8.504;2024-01-30T00:11:27;526.88;;;46.40;;
73938;SDS011;62291;47.554;8.504;2024-01-30T00:13:53;482.73;;;49.05;;
73938;SDS011;62291;47.554;8.504;2024-01-30T00:16:21;367.38;;;35.10;;
73938;SDS011;62291;47.554;8.504;2024-01-30T00:18:49;556.35;;;54.72;;
73938;SDS011;62291;47.554;8.504;2024-01-30T00:21:18;351.92;;;41.72;;
73938;SDS011;62291;47.554;8.504;2024-01-30T00:23:45;747.40;;;61.50;;
73938;SDS011;62291;47.554;8.504;2024-01-30T00:26:11;272.73;;;36.13;;
73938;SDS011;62291;47.554;8.504;2024-01-30T00:28:37;632.20;;;56.75;;
73938;SDS011;62291;47.554;8.504;2024-01-30T00:31:06;377.75;;;40.47;;
73938;SDS011;62291;47.554;8.504;2024-01-30T00:33:32;439.85;;;39.10;;
73938;SDS011;62291;47.554;8.504;2024-01-30T00:35:58;271.20;;;33.85;;
73938;SDS011;62291;47.554;8.504;2024-01-30T00:38:24;275.88;;;36.22;;
73938;SDS011;62291;47.554;8.504;2024-01-30T00:40:49;359.20;;;39.30;;
73938;SDS011;62291;47.554;8.504;2024-01-30T00:43:15;191.73;;;30.95;;
73938;SDS011;62291;47.554;8.504;2024-01-30T00:45:41;391.15;;;40.40;;
73938;SDS011;62291;47.554;8.504;2024-01-30T00:48:08;299.38;;;34.30;;
73938;SDS011;62291;47.554;8.504;2024-01-30T00:50:34;443.50;;;41.42;;
73938;SDS011;62291;47.554;8.504;2024-01-30T00:52:59;365.17;;;34.97;;
73938;SDS011;62291;47.554;8.504;2024-01-30T00:55:25;488.38;;;37.80;;
73938;SDS011;62291;47.554;8.504;2024-01-30T00:57:51;533.55;;;49.40;;
73938;SDS011;62291;47.554;8.504;2024-01-30T01:00:16;609.22;;;56.50;;
73938;SDS011;62291;47.554;8.504;2024-01-30T01:02:42;524.92;;;39.03;;
73938;SDS011;62291;47.554;8.504;2024-01-30T01:05:08;530.25;;;57.88;;
73938;SDS011;62291;47.554;8.504;2024-01-30T01:07:34;724.00;;;60.40;;
73938;SDS011;62291;47.554;8.504;2024-01-30T01:09:59;494.83;;;47.50;;
73938;SDS011;62291;47.554;8.504;2024-01-30T01:12:25;262.00;;;32.58;;
73938;SDS011;62291;47.554;8.504;2024-01-30T01:14:51;520.65;;;45.72;;
73938;SDS011;62291;47.554;8.504;2024-01-30T01:17:16;548.83;;;49.92;;
73938;SDS011;62291;47.554;8.504;2024-01-30T01:19:43;437.25;;;43.13;;
73938;SDS011;62291;47.554;8.504;2024-01-30T01:22:09;366.17;;;36.70;;
73938;SDS011;62291;47.554;8.504;2024-01-30T01:24:35;550.67;;;56.00;;
73938;SDS011;62291;47.554;8.504;2024-01-30T01:27:01;587.30;;;55.95;;
73938;SDS011;62291;47.554;8.504;2024-01-30T01:29:27;580.65;;;55.40;;
73938;SDS011;62291;47.554;8.504;2024-01-30T01:31:55;345.88;;;39.53;;
73938;SDS011;62291;47.554;8.504;2024-01-30T01:34:21;383.42;;;38.90;;
73938;SDS011;62291;47.554;8.504;2024-01-30T01:36:48;551.80;;;54.30;;
73938;SDS011;62291;47.554;8.504;2024-01-30T01:39:13;344.17;;;40.30;;
73938;SDS011;62291;47.554;8.504;2024-01-30T01:41:39;261.58;;;38.90;;
73938;SDS011;62291;47.554;8.504;2024-01-30T01:44:04;245.35;;;33.47;;
73938;SDS011;62291;47.554;8.504;2024-01-30T01:46:30;494.38;;;48.95;;
73938;SDS011;62291;47.554;8.504;2024-01-30T01:48:58;489.85;;;52.10;;
73938;SDS011;62291;47.554;8.504;2024-01-30T01:51:26;318.92;;;36.45;;
73938;SDS011;62291;47.554;8.504;2024-01-30T01:53:56;476.05;;;42.60;;
73938;SDS011;62291;47.554;8.504;2024-01-30T01:56:23;482.38;;;50.95;;
73938;SDS011;62291;47.554;8.504;2024-01-30T01:58:51;791.10;;;73.30;;
73938;SDS011;62291;47.554;8.504;2024-01-30T02:01:19;429.42;;;39.22;;
73938;SDS011;62291;47.554;8.504;2024-01-30T02:03:46;469.77;;;41.75;;
73938;SDS011;62291;47.554;8.504;2024-01-30T02:06:15;269.83;;;35.47;;
73938;SDS011;62291;47.554;8.504;2024-01-30T02:08:42;867.35;;;66.05;;
73938;SDS011;62291;47.554;8.504;2024-01-30T02:11:08;645.72;;;53.85;;
73938;SDS011;62291;47.554;8.504;2024-01-30T02:13:35;558.53;;;53.88;;
73938;SDS011;62291;47.554;8.504;2024-01-30T02:16:01;521.95;;;49.03;;
73938;SDS011;62291;47.554;8.504;2024-01-30T02:18:26;624.47;;;56.33;;
73938;SDS011;62291;47.554;8.504;2024-01-30T02:20:53;436.48;;;46.50;;
73938;SDS011;62291;47.554;8.504;2024-01-30T02:23:22;512.85;;;49.95;;
73938;SDS011;62291;47.554;8.504;2024-01-30T02:25:50;312.55;;;38.50;;
73938;SDS011;62291;47.554;8.504;2024-01-30T02:28:18;565.58;;;48.65;;
73938;SDS011;62291;47.554;8.504;2024-01-30T02:30:44;499.10;;;48.00;;
73938;SDS011;62291;47.554;8.504;2024-01-30T02:33:11;518.38;;;49.67;;
73938;SDS011;62291;47.554;8.504;2024-01-30T02:35:37;248.45;;;33.30;;
73938;SDS011;62291;47.554;8.504;2024-01-30T02:38:03;254.95;;;37.42;;
73938;SDS011;62291;47.554;8.504;2024-01-30T02:40:29;359.83;;;41.40;;
73938;SDS011;62291;47.554;8.504;2024-01-30T02:42:55;358.65;;;38.97;;
73938;SDS011;62291;47.554;8.504;2024-01-30T02:45:21;165.80;;;27.67;;
73938;SDS011;62291;47.554;8.504;2024-01-30T02:47:47;588.50;;;46.00;;
73938;SDS011;62291;47.554;8.504;2024-01-30T02:50:13;620.15;;;50.30;;
73938;SDS011;62291;47.554;8.504;2024-01-30T02:52:40;602.30;;;49.15;;
73938;SDS011;62291;47.554;8.504;2024-01-30T02:55:06;399.85;;;39.13;;
73938;SDS011;62291;47.554;8.504;2024-01-30T02:57:31;559.40;;;48.10;;
73938;SDS011;62291;47.554;8.504;2024-01-30T02:59:57;268.80;;;29.55;;
73938;SDS011;62291;47.554;8.504;2024-01-30T03:02:23;667.78;;;56.90;;
73938;SDS011;62291;47.554;8.504;2024-01-30T03:04:49;440.90;;;41.95;;
73938;SDS011;62291;47.554;8.504;2024-01-30T03:07:14;385.77;;;41.13;;
73938;SDS011;62291;47.554;8.504;2024-01-30T03:09:41;396.75;;;42.03;;
73938;SDS011;62291;47.554;8.504;2024-01-30T03:12:10;442.75;;;37.33;;
73938;SDS011;62291;47.554;8.504;2024-01-30T03:14:36;391.23;;;40.08;;
73938;SDS011;62291;47.554;8.504;2024-01-30T03:17:01;470.25;;;43.28;;
73938;SDS011;62291;47.554;8.504;2024-01-30T03:19:27;385.98;;;40.67;;
73938;SDS011;62291;47.554;8.504;2024-01-30T03:21:53;216.95;;;27.95;;
73938;SDS011;62291;47.554;8.504;2024-01-30T03:24:19;521.63;;;44.35;;
73938;SDS011;62291;47.554;8.504;2024-01-30T03:26:45;484.20;;;47.10;;
73938;SDS011;62291;47.554;8.504;2024-01-30T03:29:11;454.90;;;39.92;;
73938;SDS011;62291;47.554;8.504;2024-01-30T03:31:36;448.83;;;42.47;;
73938;SDS011;62291;47.554;8.504;2024-01-30T03:34:02;524.70;;;43.88;;
73938;SDS011;62291;47.554;8.504;2024-01-30T03:36:28;326.58;;;36.25;;
73938;SDS011;62291;47.554;8.504;2024-01-30T03:38:53;216.02;;;30.02;;
73938;SDS011;62291;47.554;8.504;2024-01-30T03:41:19;620.90;;;48.95;;
73938;SDS011;62291;47.554;8.504;2024-01-30T03:43:45;535.53;;;48.60;;
73938;SDS011;62291;47.554;8.504;2024-01-30T03:46:12;180.57;;;26.55;;
73938;SDS011;62291;47.554;8.504;2024-01-30T03:48:38;321.48;;;31.67;;
73938;SDS011;62291;47.554;8.504;2024-01-30T03:51:04;358.45;;;34.78;;
73938;SDS011;62291;47.554;8.504;2024-01-30T03:53:30;653.90;;;54.70;;
73938;SDS011;62291;47.554;8.504;2024-01-30T03:55:55;562.83;;;49.35;;
73938;SDS011;62291;47.554;8.504;2024-01-30T03:58:22;407.02;;;38.75;;
73938;SDS011;62291;47.554;8.504;2024-01-30T04:00:48;304.60;;;35.08;;
73938;SDS011;62291;47.554;8.504;2024-01-30T04:03:14;268.63;;;33.28;;
73938;SDS011;62291;47.554;8.504;2024-01-30T04:05:43;347.38;;;37.35;;
73938;SDS011;62291;47.554;8.504;2024-01-30T04:08:10;535.00;;;46.03;;
73938;SDS011;62291;47.554;8.504;2024-01-30T04:10:35;401.70;;;39.95;;
73938;SDS011;62291;47.554;8.504;2024-01-30T04:13:01;508.20;;;51.33;;
73938;SDS011;62291;47.554;8.504;2024-01-30T04:15:27;256.90;;;32.78;;
73938;SDS011;62291;47.554;8.504;2024-01-30T04:17:56;232.13;;;29.83;;
73938;SDS011;62291;47.554;8.504;2024-01-30T04:20:23;523.17;;;47.70;;
73938;SDS011;62291;47.554;8.504;2024-01-30T04:22:49;530.10;;;50.70;;
73938;SDS011;62291;47.554;8.504;2024-01-30T04:25:15;632.78;;;56.03;;
73938;SDS011;62291;47.554;8.504;2024-01-30T04:27:41;505.67;;;47.30;;
73938;SDS011;62291;47.554;8.504;2024-01-30T04:30:06;307.27;;;36.30;;
73938;SDS011;62291;47.554;8.504;2024-01-30T04:32:33;383.35;;;38.13;;
73938;SDS011;62291;47.554;8.504;2024-01-30T04:34:58;420.20;;;40.47;;
73938;SDS011;62291;47.554;8.504;2024-01-30T04:37:24;587.92;;;54.17;;
73938;SDS011;62291;47.554;8.504;2024-01-30T04:39:50;324.58;;;39.17;;
73938;SDS011;62291;47.554;8.504;2024-01-30T04:42:16;290.98;;;35.65;;
73938;SDS011;62291;47.554;8.504;2024-01-30T04:44:42;506.35;;;45.53;;
73938;SDS011;62291;47.554;8.504;2024-01-30T04:47:08;261.48;;;33.42;;
73938;SDS011;62291;47.554;8.504;2024-01-30T04:49:36;191.45;;;32.70;;
73938;SDS011;62291;47.554;8.504;2024-01-30T04:52:02;190.32;;;29.27;;
73938;SDS011;62291;47.554;8.504;2024-01-30T04:54:27;619.05;;;54.33;;
73938;SDS011;62291;47.554;8.504;2024-01-30T04:56:53;284.98;;;35.78;;
73938;SDS011;62291;47.554;8.504;2024-01-30T04:59:19;501.50;;;43.70;;
73938;SDS011;62291;47.554;8.504;2024-01-30T05:01:44;169.77;;;27.80;;
73938;SDS011;62291;47.554;8.504;2024-01-30T05:04:10;179.55;;;28.15;;
73938;SDS011;62291;47.554;8.504;2024-01-30T05:06:36;463.45;;;43.35;;
73938;SDS011;62291;47.554;8.504;2024-01-30T05:09:02;451.08;;;34.72;;
73938;SDS011;62291;47.554;8.504;2024-01-30T05:11:31;203.40;;;31.05;;
73938;SDS011;62291;47.554;8.504;2024-01-30T05:13:56;323.25;;;38.80;;
73938;SDS011;62291;47.554;8.504;2024-01-30T05:16:22;328.92;;;32.65;;
73938;SDS011;62291;47.554;8.504;2024-01-30T05:18:47;643.20;;;51.97;;
73938;SDS011;62291;47.554;8.504;2024-01-30T05:21:13;641.00;;;52.88;;
73938;SDS011;62291;47.554;8.504;2024-01-30T05:23:39;434.77;;;43.15;;
73938;SDS011;62291;47.554;8.504;2024-01-30T05:26:06;478.20;;;43.90;;
73938;SDS011;62291;47.554;8.504;2024-01-30T05:28:33;410.70;;;39.05;;
73938;SDS011;62291;47.554;8.504;2024-01-30T05:30:58;234.25;;;32.28;;
73938;SDS011;62291;47.554;8.504;2024-01-30T05:33:24;289.20;;;31.20;;
73938;SDS011;62291;47.554;8.504;2024-01-30T05:35:50;131.00;;;23.67;;
73938;SDS011;62291;47.554;8.504;2024-01-30T05:38:19;525.70;;;49.67;;
73938;SDS011;62291;47.554;8.504;2024-01-30T05:40:45;414.27;;;39.97;;
73938;SDS011;62291;47.554;8.504;2024-01-30T05:43:11;434.95;;;37.10;;
73938;SDS011;62291;47.554;8.504;2024-01-30T05:45:36;368.38;;;35.92;;
73938;SDS011;62291;47.554;8.504;2024-01-30T05:48:02;368.33;;;34.03;;
73938;SDS011;62291;47.554;8.504;2024-01-30T05:50:28;319.25;;;30.45;;
73938;SDS011;62291;47.554;8.504;2024-01-30T05:52:54;361.02;;;31.95;;
73938;SDS011;62291;47.554;8.504;2024-01-30T05:55:20;228.82;;;27.13;;
73938;SDS011;62291;47.554;8.504;2024-01-30T05:57:46;449.98;;;41.72;;
73938;SDS011;62291;47.554;8.504;2024-01-30T06:00:12;276.23;;;32.58;;
73938;SDS011;62291;47.554;8.504;2024-01-30T06:02:38;333.60;;;32.88;;
73938;SDS011;62291;47.554;8.504;2024-01-30T06:05:04;217.00;;;29.42;;
73938;SDS011;62291;47.554;8.504;2024-01-30T06:07:29;310.85;;;38.17;;
73938;SDS011;62291;47.554;8.504;2024-01-30T06:09:56;416.92;;;34.42;;
73938;SDS011;62291;47.554;8.504;2024-01-30T06:12:22;256.35;;;31.83;;
73938;SDS011;62291;47.554;8.504;2024-01-30T06:14:47;258.02;;;34.08;;
73938;SDS011;62291;47.554;8.504;2024-01-30T06:17:13;351.08;;;30.90;;
73938;SDS011;62291;47.554;8.504;2024-01-30T06:19:39;398.13;;;41.65;;
73938;SDS011;62291;47.554;8.504;2024-01-30T06:22:05;552.22;;;52.95;;
73938;SDS011;62291;47.554;8.504;2024-01-30T06:24:30;313.50;;;39.08;;
73938;SDS011;62291;47.554;8.504;2024-01-30T06:26:56;244.32;;;31.58;;
73938;SDS011;62291;47.554;8.504;2024-01-30T06:29:22;258.58;;;35.47;;
73938;SDS011;62291;47.554;8.504;2024-01-30T06:31:49;681.95;;;55.75;;
73938;SDS011;62291;47.554;8.504;2024-01-30T06:34:15;266.48;;;27.30;;
73938;SDS011;62291;47.554;8.504;2024-01-30T06:36:41;176.43;;;26.10;;
73938;SDS011;62291;47.554;8.504;2024-01-30T06:39:07;454.80;;;38.72;;
73938;SDS011;62291;47.554;8.504;2024-01-30T06:41:33;342.10;;;37.50;;
73938;SDS011;62291;47.554;8.504;2024-01-30T06:43:59;332.45;;;35.00;;
73938;SDS011;62291;47.554;8.504;2024-01-30T06:46:24;416.42;;;38.88;;
73938;SDS011;62291;47.554;8.504;2024-01-30T06:48:50;435.45;;;38.97;;
73938;SDS011;62291;47.554;8.504;2024-01-30T06:51:16;361.42;;;32.53;;
73938;SDS011;62291;47.554;8.504;2024-01-30T06:53:41;308.75;;;29.73;;
73938;SDS011;62291;47.554;8.504;2024-01-30T06:56:07;198.63;;;27.67;;
73938;SDS011;62291;47.554;8.504;2024-01-30T06:58:33;145.18;;;26.27;;
73938;SDS011;62291;47.554;8.504;2024-01-30T07:00:58;205.68;;;29.70;;
73938;SDS011;62291;47.554;8.504;2024-01-30T07:03:24;241.43;;;33.85;;
73938;SDS011;62291;47.554;8.504;2024-01-30T07:05:50;238.63;;;32.70;;
73938;SDS011;62291;47.554;8.504;2024-01-30T07:08:16;336.67;;;37.63;;
73938;SDS011;62291;47.554;8.504;2024-01-30T07:10:42;266.67;;;32.35;;
73938;SDS011;62291;47.554;8.504;2024-01-30T07:13:09;134.15;;;23.30;;
73938;SDS011;62291;47.554;8.504;2024-01-30T07:15:35;80.53;;;21.33;;
73938;SDS011;62291;47.554;8.504;2024-01-30T07:18:05;77.60;;;21.17;;
73938;SDS011;62291;47.554;8.504;2024-01-30T07:20:31;217.57;;;34.80;;
73938;SDS011;62291;47.554;8.504;2024-01-30T07:23:00;204.02;;;33.92;;
73938;SDS011;62291;47.554;8.504;2024-01-30T07:25:26;93.80;;;22.05;;
73938;SDS011;62291;47.554;8.504;2024-01-30T07:27:52;118.82;;;23.55;;
73938;SDS011;62291;47.554;8.504;2024-01-30T07:30:18;91.50;;;22.90;;
73938;SDS011;62291;47.554;8.504;2024-01-30T07:32:45;50.47;;;21.85;;
73938;SDS011;62291;47.554;8.504;2024-01-30T07:35:11;119.65;;;23.90;;
73938;SDS011;62291;47.554;8.504;2024-01-30T07:37:37;89.38;;;20.48;;
73938;SDS011;62291;47.554;8.504;2024-01-30T07:40:03;124.00;;;24.05;;
73938;SDS011;62291;47.554;8.504;2024-01-30T07:42:29;209.40;;;30.73;;
73938;SDS011;62291;47.554;8.504;2024-01-30T07:44:55;86.03;;;22.15;;
73938;SDS011;62291;47.554;8.504;2024-01-30T07:47:21;140.13;;;23.42;;
73938;SDS011;62291;47.554;8.504;2024-01-30T07:49:46;54.58;;;19.75;;
73938;SDS011;62291;47.554;8.504;2024-01-30T07:52:12;83.20;;;20.92;;
73938;SDS011;62291;47.554;8.504;2024-01-30T07:57:22;205.80;;;24.27;;
73938;SDS011;62291;47.554;8.504;2024-01-30T07:59:48;219.20;;;25.45;;
73938;SDS011;62291;47.554;8.504;2024-01-30T08:02:14;85.20;;;18.88;;
73938;SDS011;62291;47.554;8.504;2024-01-30T08:04:40;72.57;;;18.67;;
73938;SDS011;62291;47.554;8.504;2024-01-30T08:07:06;263.35;;;34.42;;
73938;SDS011;62291;47.554;8.504;2024-01-30T08:09:31;242.80;;;29.45;;
73938;SDS011;62291;47.554;8.504;2024-01-30T08:11:57;336.73;;;40.08;;
73938;SDS011;62291;47.554;8.504;2024-01-30T08:14:23;366.10;;;34.80;;
73938;SDS011;62291;47.554;8.504;2024-01-30T08:16:49;347.52;;;34.33;;
73938;SDS011;62291;47.554;8.504;2024-01-30T08:19:15;475.05;;;50.63;;
73938;SDS011;62291;47.554;8.504;2024-01-30T08:21:41;311.65;;;34.97;;
73938;SDS011;62291;47.554;8.504;2024-01-30T08:24:06;272.60;;;24.85;;
73938;SDS011;62291;47.554;8.504;2024-01-30T08:26:33;335.08;;;29.50;;
73938;SDS011;62291;47.554;8.504;2024-01-30T08:28:58;97.22;;;18.73;;
73938;SDS011;62291;47.554;8.504;2024-01-30T08:31:24;109.53;;;18.33;;
73938;SDS011;62291;47.554;8.504;2024-01-30T08:33:50;153.27;;;22.13;;
73938;SDS011;62291;47.554;8.504;2024-01-30T08:36:16;137.00;;;21.40;;
73938;SDS011;62291;47.554;8.504;2024-01-30T08:38:42;372.35;;;44.00;;
73938;SDS011;62291;47.554;8.504;2024-01-30T08:41:08;357.05;;;38.78;;
73938;SDS011;62291;47.554;8.504;2024-01-30T08:43:34;321.70;;;33.95;;
73938;SDS011;62291;47.554;8.504;2024-01-30T08:46:00;175.18;;;24.60;;
73938;SDS011;62291;47.554;8.504;2024-01-30T08:48:25;192.25;;;27.33;;
73938;SDS011;62291;47.554;8.504;2024-01-30T08:50:51;73.35;;;18.35;;
73938;SDS011;62291;47.554;8.504;2024-01-30T08:53:17;82.03;;;19.77;;
73938;SDS011;62291;47.554;8.504;2024-01-30T08:55:43;219.05;;;27.17;;
73938;SDS011;62291;47.554;8.504;2024-01-30T08:58:09;179.13;;;29.02;;
73938;SDS011;62291;47.554;8.504;2024-01-30T09:00:35;111.80;;;20.55;;
73938;SDS011;62291;47.554;8.504;2024-01-30T09:03:01;212.18;;;27.00;;
73938;SDS011;62291;47.554;8.504;2024-01-30T09:05:26;52.92;;;18.80;;
73938;SDS011;62291;47.554;8.504;2024-01-30T09:07:52;47.67;;;18.08;;
73938;SDS011;62291;47.554;8.504;2024-01-30T09:10:18;58.00;;;18.67;;
73938;SDS011;62291;47.554;8.504;2024-01-30T09:12:45;119.10;;;21.77;;
73938;SDS011;62291;47.554;8.504;2024-01-30T09:15:11;134.52;;;21.30;;
73938;SDS011;62291;47.554;8.504;2024-01-30T09:17:37;126.30;;;22.42;;
73938;SDS011;62291;47.554;8.504;2024-01-30T09:20:03;59.42;;;19.50;;
73938;SDS011;62291;47.554;8.504;2024-01-30T09:22:29;35.10;;;19.10;;
73938;SDS011;62291;47.554;8.504;2024-01-30T09:24:54;38.83;;;17.98;;
73938;SDS011;62291;47.554;8.504;2024-01-30T09:27:20;45.28;;;16.73;;
73938;SDS011;62291;47.554;8.504;2024-01-30T09:29:45;39.00;;;19.23;;
73938;SDS011;62291;47.554;8.504;2024-01-30T09:32:11;27.10;;;16.10;;
73938;SDS011;62291;47.554;8.504;2024-01-30T09:34:37;69.70;;;18.20;;
73938;SDS011;62291;47.554;8.504;2024-01-30T09:37:04;185.48;;;31.00;;
73938;SDS011;62291;47.554;8.504;2024-01-30T09:39:30;44.58;;;18.02;;
73938;SDS011;62291;47.554;8.504;2024-01-30T09:42:02;72.22;;;24.33;;
73938;SDS011;62291;47.554;8.504;2024-01-30T09:44:40;157.60;;;27.85;;
73938;SDS011;62291;47.554;8.504;2024-01-30T09:47:08;216.93;;;29.02;;
73938;SDS011;62291;47.554;8.504;2024-01-30T09:49:35;175.65;;;31.08;;
73938;SDS011;62291;47.554;8.504;2024-01-30T09:52:03;295.15;;;37.53;;
73938;SDS011;62291;47.554;8.504;2024-01-30T09:54:30;223.43;;;28.65;;
73938;SDS011;62291;47.554;8.504;2024-01-30T09:56:57;207.85;;;34.10;;
73938;SDS011;62291;47.554;8.504;2024-01-30T09:59:23;83.57;;;23.75;;
73938;SDS011;62291;47.554;8.504;2024-01-30T10:01:49;136.18;;;27.50;;
73938;SDS011;62291;47.554;8.504;2024-01-30T10:04:16;204.23;;;33.30;;
73938;SDS011;62291;47.554;8.504;2024-01-30T10:06:42;548.50;;;45.97;;
73938;SDS011;62291;47.554;8.504;2024-01-30T10:09:08;210.52;;;29.23;;
73938;SDS011;62291;47.554;8.504;2024-01-30T10:11:34;177.40;;;29.30;;
73938;SDS011;62291;47.554;8.504;2024-01-30T10:14:01;464.08;;;40.25;;
73938;SDS011;62291;47.554;8.504;2024-01-30T10:16:26;211.30;;;29.15;;
73938;SDS011;62291;47.554;8.504;2024-01-30T10:18:52;75.65;;;25.77;;
73938;SDS011;62291;47.554;8.504;2024-01-30T10:21:17;50.13;;;23.45;;
73938;SDS011;62291;47.554;8.504;2024-01-30T10:23:43;48.85;;;25.35;;
73938;SDS011;62291;47.554;8.504;2024-01-30T10:26:12;38.40;;;23.70;;
73938;SDS011;62291;47.554;8.504;2024-01-30T10:28:38;43.92;;;24.10;;
73938;SDS011;62291;47.554;8.504;2024-01-30T10:31:04;47.90;;;25.80;;
73938;SDS011;62291;47.554;8.504;2024-01-30T10:33:30;37.80;;;23.42;;
73938;SDS011;62291;47.554;8.504;2024-01-30T10:36:03;32.45;;;20.80;;
73938;SDS011;62291;47.554;8.504;2024-01-30T10:38:31;29.45;;;19.55;;
73938;SDS011;62291;47.554;8.504;2024-01-30T10:40:58;26.60;;;19.02;;
73938;SDS011;62291;47.554;8.504;2024-01-30T10:43:40;29.67;;;19.85;;
73938;SDS011;62291;47.554;8.504;2024-01-30T10:46:11;33.25;;;22.75;;
73938;SDS011;62291;47.554;8.504;2024-01-30T10:48:51;38.33;;;21.63;;
73938;SDS011;62291;47.554;8.504;2024-01-30T10:51:23;32.42;;;21.88;;
73938;SDS011;62291;47.554;8.504;2024-01-30T10:53:51;39.30;;;22.63;;
73938;SDS011;62291;47.554;8.504;2024-01-30T10:56:18;32.60;;;21.33;;
73938;SDS011;62291;47.554;8.504;2024-01-30T10:58:50;50.80;;;26.98;;
73938;SDS011;62291;47.554;8.504;2024-01-30T11:01:20;38.47;;;23.90;;
73938;SDS011;62291;47.554;8.504;2024-01-30T11:03:54;31.23;;;21.23;;
73938;SDS011;62291;47.554;8.504;2024-01-30T11:06:22;38.33;;;22.60;;
73938;SDS011;62291;47.554;8.504;2024-01-30T11:09:04;30.92;;;20.58;;
73938;SDS011;62291;47.554;8.504;2024-01-30T11:14:16;28.60;;;19.35;;
73938;SDS011;62291;47.554;8.504;2024-01-30T11:16:48;29.80;;;21.10;;
73938;SDS011;62291;47.554;8.504;2024-01-30T11:19:14;33.47;;;22.15;;
73938;SDS011;62291;47.554;8.504;2024-01-30T11:21:43;33.95;;;22.13;;
73938;SDS011;62291;47.554;8.504;2024-01-30T11:24:08;41.85;;;24.33;;
73938;SDS011;62291;47.554;8.504;2024-01-30T11:26:34;31.23;;;21.80;;
73938;SDS011;62291;47.554;8.504;2024-01-30T11:29:03;27.50;;;18.42;;
73938;SDS011;62291;47.554;8.504;2024-01-30T11:31:29;30.17;;;21.08;;
73938;SDS011;62291;47.554;8.504;2024-01-30T11:33:55;27.83;;;20.27;;
73938;SDS011;62291;47.554;8.504;2024-01-30T11:36:23;26.50;;;19.83;;
73938;SDS011;62291;47.554;8.504;2024-01-30T11:38:52;30.58;;;20.17;;
73938;SDS011;62291;47.554;8.504;2024-01-30T11:41:17;29.67;;;19.67;;
73938;SDS011;62291;47.554;8.504;2024-01-30T11:43:50;23.88;;;18.05;;
73938;SDS011;62291;47.554;8.504;2024-01-30T11:46:17;28.00;;;19.92;;
73938;SDS011;62291;47.554;8.504;2024-01-30T11:48:43;24.40;;;19.35;;
73938;SDS011;62291;47.554;8.504;2024-01-30T11:51:09;23.17;;;18.30;;
73938;SDS011;62291;47.554;8.504;2024-01-30T11:53:34;22.92;;;16.38;;
73938;SDS011;62291;47.554;8.504;2024-01-30T11:56:00;28.75;;;17.77;;
73938;SDS011;62291;47.554;8.504;2024-01-30T11:58:26;23.25;;;18.33;;
73938;SDS011;62291;47.554;8.504;2024-01-30T12:00:55;24.30;;;17.77;;
73938;SDS011;62291;47.554;8.504;2024-01-30T12:03:21;25.88;;;16.65;;
73938;SDS011;62291;47.554;8.504;2024-01-30T12:05:54;24.85;;;18.48;;
73938;SDS011;62291;47.554;8.504;2024-01-30T12:08:21;23.67;;;17.52;;
73938;SDS011;62291;47.554;8.504;2024-01-30T12:10:48;21.02;;;15.90;;
73938;SDS011;62291;47.554;8.504;2024-01-30T12:13:30;23.05;;;17.25;;
73938;SDS011;62291;47.554;8.504;2024-01-30T12:15:56;21.05;;;15.75;;
73938;SDS011;62291;47.554;8.504;2024-01-30T12:18:22;21.80;;;15.43;;
73938;SDS011;62291;47.554;8.504;2024-01-30T12:20:57;19.58;;;15.43;;
73938;SDS011;62291;47.554;8.504;2024-01-30T12:23:29;20.40;;;16.80;;
73938;SDS011;62291;47.554;8.504;2024-01-30T12:25:55;21.75;;;16.02;;
73938;SDS011;62291;47.554;8.504;2024-01-30T12:28:21;21.17;;;16.00;;
73938;SDS011;62291;47.554;8.504;2024-01-30T12:30:46;24.85;;;16.60;;
73938;SDS011;62291;47.554;8.504;2024-01-30T12:33:16;22.95;;;17.10;;
73938;SDS011;62291;47.554;8.504;2024-01-30T12:35:46;23.85;;;16.90;;
73938;SDS011;62291;47.554;8.504;2024-01-30T12:38:15;26.95;;;18.33;;
73938;SDS011;62291;47.554;8.504;2024-01-30T12:40:41;21.20;;;17.25;;
73938;SDS011;62291;47.554;8.504;2024-01-30T12:43:07;21.08;;;17.48;;
73938;SDS011;62291;47.554;8.504;2024-01-30T12:45:33;22.67;;;17.17;;
73938;SDS011;62291;47.554;8.504;2024-01-30T12:47:58;23.75;;;17.30;;
73938;SDS011;62291;47.554;8.504;2024-01-30T12:50:24;21.67;;;16.77;;
73938;SDS011;62291;47.554;8.504;2024-01-30T12:52:50;24.80;;;17.20;;
73938;SDS011;62291;47.554;8.504;2024-01-30T12:55:16;21.38;;;17.35;;
73938;SDS011;62291;47.554;8.504;2024-01-30T12:57:42;22.02;;;17.13;;
73938;SDS011;62291;47.554;8.504;2024-01-30T13:00:08;22.00;;;17.08;;
73938;SDS011;62291;47.554;8.504;2024-01-30T13:02:34;24.50;;;18.85;;
73938;SDS011;62291;47.554;8.504;2024-01-30T13:05:05;27.23;;;17.83;;
73938;SDS011;62291;47.554;8.504;2024-01-30T13:07:31;22.65;;;17.77;;
73938;SDS011;62291;47.554;8.504;2024-01-30T13:09:56;26.33;;;17.65;;
73938;SDS011;62291;47.554;8.504;2024-01-30T13:12:28;23.95;;;18.13;;
73938;SDS011;62291;47.554;8.504;2024-01-30T13:14:54;27.88;;;17.98;;
73938;SDS011;62291;47.554;8.504;2024-01-30T13:17:20;26.05;;;17.42;;
73938;SDS011;62291;47.554;8.504;2024-01-30T13:19:45;21.23;;;17.05;;
73938;SDS011;62291;47.554;8.504;2024-01-30T13:22:11;21.45;;;16.55;;
73938;SDS011;62291;47.554;8.504;2024-01-30T13:24:37;24.60;;;16.67;;
73938;SDS011;62291;47.554;8.504;2024-01-30T13:27:03;25.25;;;18.27;;
73938;SDS011;62291;47.554;8.504;2024-01-30T13:29:31;24.10;;;17.10;;
73938;SDS011;62291;47.554;8.504;2024-01-30T13:31:56;22.58;;;17.23;;
73938;SDS011;62291;47.554;8.504;2024-01-30T13:34:22;24.98;;;16.55;;
73938;SDS011;62291;47.554;8.504;2024-01-30T13:36:47;23.55;;;17.38;;
73938;SDS011;62291;47.554;8.504;2024-01-30T13:39:14;21.75;;;16.40;;
73938;SDS011;62291;47.554;8.504;2024-01-30T13:41:41;32.92;;;17.52;;
73938;SDS011;62291;47.554;8.504;2024-01-30T13:44:07;21.20;;;16.50;;
73938;SDS011;62291;47.554;8.504;2024-01-30T13:46:34;25.05;;;16.40;;
73938;SDS011;62291;47.554;8.504;2024-01-30T13:49:00;24.90;;;16.70;;
73938;SDS011;62291;47.554;8.504;2024-01-30T13:51:26;24.92;;;18.30;;
73938;SDS011;62291;47.554;8.504;2024-01-30T13:53:52;23.05;;;16.23;;
73938;SDS011;62291;47.554;8.504;2024-01-30T13:56:18;24.83;;;16.92;;
73938;SDS011;62291;47.554;8.504;2024-01-30T13:58:45;21.23;;;16.83;;
73938;SDS011;62291;47.554;8.504;2024-01-30T14:01:10;23.30;;;17.63;;
73938;SDS011;62291;47.554;8.504;2024-01-30T14:03:36;23.60;;;18.02;;
73938;SDS011;62291;47.554;8.504;2024-01-30T14:06:02;23.00;;;18.48;;
73938;SDS011;62291;47.554;8.504;2024-01-30T14:08:27;23.17;;;19.38;;
73938;SDS011;62291;47.554;8.504;2024-01-30T14:10:54;24.25;;;19.08;;
73938;SDS011;62291;47.554;8.504;2024-01-30T14:13:21;25.58;;;18.88;;
73938;SDS011;62291;47.554;8.504;2024-01-30T14:15:47;27.77;;;19.90;;